West Yellowstone, MT

5:53 AM MDT on April 21, 2015 (GMT -0600)
Lower Beartrap | | Change Station
CLOSE
Current Station
Personal Weather Station
Location: West Yellowstone, MT
Elevation: 6565 ft
Nearby Weather Stations

Elev 6565 ft 44.79 °N, 111.14 °W | Updated 8 minutes ago

Clear
Clear
21.2 °F
Feels Like 21 °F
N
0.0
Wind Variable Wind from North
Gusts 3.1 mph

Today
High -- | Low -- °F
--% Chance of Precip.
Yesterday
High -- | Low -- °F
Precip. -- in
6:30 AM 8:16 PM
Waxing Crescent, 10% visible
Pressure 29.97 in
Visibility -9999.0 miles
Clouds
Windchill 21 °F
Dew Point 17 °F
Humidity 82%
Rainfall 0.00 in
Snow Depth Not available.
UV Not available.
Pollen 8.70 out of 12
Air Quality Not available.
Flu Activity Regional
METAR KP60 211056Z AUTO 00000KT M05/M07 A3000 RMK AO1 SLP147 T10501072 $

More Conditions Fewer Conditions

Pressure 29.97 in
Visibility -9999.0 miles
Clouds
Windchill 21 °F
Dew Point 17 °F
Humidity 82%
Rainfall 0.00 in
Snow Depth Not available.
UV Not available.
Pollen 8.70 out of 12
Air Quality Not available.
Flu Activity Regional
METAR KP60 211056Z AUTO 00000KT M05/M07 A3000 RMK AO1 SLP147 T10501072 $

More Conditions Fewer Conditions

10-Day Weather Forecast

Almanac

Astronomy

Apr. 21, 2015 Rise Set
Actual Time
Civil Twilight
Nautical Twilight
Astronomical Twilight
Moon
Length of Visible Light
Length of Day
Tomorrow will be .
, % of the Moon is Illuminated

Today's Extremes

State Highs State Lows

Community

WunderPhotos

Upload Photos

1,815,349 photos uploaded!

WunderBlogs® & News

Nearby

Air Quality

  Air Quality AQ Index Pollutant
Not available.

Snow Depth

Station Depth Elevation

Earthquake Activity

City Distance Mag. Time & Date
Minimum magnitude displayed is 2.5.

Coastal Water Temperatures

Place Temperature

Stations

Nearby Weather Stations

Station Location Temp. Windchill Dew Point Humidity Wind Precip. Elev Updated Type